Time;durP1;ratioP1;P1;durP2;ratioP2;P2;SDS_P1;SDS_P2;PMS_P1;PMS_P2;Temp;Humidity;BMP_temperature;BMP_pressure;BME280_temperature;BME280_humidity;BME280_pressure;Samples;Min_cycle;Max_cycle;Signal;HPM_P1;HPM_P2
2022/01/13 00:01:45;;;;;;;47.53;20.17;;;5.40;99.90;;;;;;4962692;28;20493;-67
2022/01/13 00:04:15;;;;;;;47.87;20.17;;;5.40;99.90;;;;;;4982532;28;20476;-67
2022/01/13 00:06:45;;;;;;;53.30;20.40;;;5.50;99.90;;;;;;4963724;28;20799;-67
2022/01/13 00:09:13;;;;;;;50.37;19.90;;;5.50;99.90;;;;;;4966257;28;20318;-67
2022/01/13 00:11:42;;;;;;;50.30;21.10;;;5.50;99.90;;;;;;4976241;28;20996;-67
2022/01/13 00:17:30;;;;;;;48.53;19.10;;;5.50;99.90;;;;;;4959247;28;20469;-67
2022/01/13 00:20:19;;;;;;;46.50;19.83;;;5.50;99.90;;;;;;4983058;28;20279;-67
2022/01/13 00:25:56;;;;;;;48.67;18.40;;;5.50;99.90;;;;;;4980849;28;20564;-67
2022/01/13 00:28:25;;;;;;;55.30;21.60;;;5.50;99.90;;;;;;4974876;28;20470;-67
2022/01/13 00:30:55;;;;;;;52.03;20.30;;;5.50;99.90;;;;;;4973379;28;20473;-67
2022/01/13 00:33:25;;;;;;;50.80;19.90;;;5.50;99.90;;;;;;4983856;28;20469;-67
2022/01/13 00:35:56;;;;;;;54.33;21.27;;;5.50;99.90;;;;;;4981902;28;20245;-67
2022/01/13 00:38:26;;;;;;;47.80;20.53;;;5.60;99.90;;;;;;4967459;28;20298;-67
2022/01/13 00:40:54;;;;;;;53.87;20.10;;;5.60;99.90;;;;;;4957057;28;20481;-67
2022/01/13 00:43:22;;;;;;;53.47;20.57;;;5.60;99.90;;;;;;4953004;28;20483;-67
2022/01/13 00:45:51;;;;;;;57.80;22.00;;;5.60;99.90;;;;;;4941899;28;20478;-67
2022/01/13 00:48:19;;;;;;;55.23;20.87;;;5.60;99.90;;;;;;4954013;28;20497;-67
2022/01/13 00:50:48;;;;;;;60.00;22.67;;;5.60;99.90;;;;;;4956332;28;20233;-67
2022/01/13 00:53:17;;;;;;;54.40;22.10;;;5.60;99.90;;;;;;4956137;28;20250;-68
2022/01/13 00:55:49;;;;;;;55.00;22.70;;;5.60;99.90;;;;;;4961448;28;20486;-67
2022/01/13 00:58:18;;;;;;;52.90;20.97;;;5.60;99.90;;;;;;4971487;28;20493;-67
2022/01/13 01:00:46;;;;;;;55.37;21.73;;;5.60;99.90;;;;;;4968466;28;20897;-67
2022/01/13 01:03:15;;;;;;;53.00;21.20;;;5.70;99.90;;;;;;4968161;28;20846;-67
2022/01/13 01:05:43;;;;;;;56.10;20.70;;;5.60;99.90;;;;;;4948792;28;20492;-67
2022/01/13 01:08:12;;;;;;;55.90;22.40;;;5.60;99.90;;;;;;4954012;28;20478;-67
2022/01/13 01:10:49;;;;;;;52.20;21.23;;;5.60;99.90;;;;;;4972476;28;20248;-67
2022/01/13 01:13:27;;;;;;;55.97;20.95;;;5.70;99.90;;;;;;4718109;28;10001358;-67
2022/01/13 01:15:58;;;;;;;52.53;19.98;;;5.70;99.90;;;;;;1369226;28;10002026;-67
2022/01/13 01:18:33;;;;;;;46.30;20.50;;;5.60;99.90;;;;;;4983249;28;20241;-67
2022/01/13 01:21:31;;;;;;;55.07;21.07;;;5.60;99.90;;;;;;4985585;28;20291;-67
2022/01/13 01:24:13;;;;;;;57.83;22.13;;;5.70;99.90;;;;;;4983871;28;20317;-67
2022/01/13 01:26:46;;;;;;;51.07;22.70;;;5.70;99.90;;;;;;4958738;28;20247;-67
2022/01/13 01:29:22;;;;;;;52.17;20.17;;;5.70;99.90;;;;;;4961158;28;20249;-67
2022/01/13 01:31:53;;;;;;;59.77;21.50;;;5.70;99.90;;;;;;4961263;28;20300;-68
2022/01/13 01:34:41;;;;;;;58.00;21.73;;;5.70;99.90;;;;;;4969420;28;20242;-67
2022/01/13 01:37:14;;;;;;;56.57;22.03;;;5.70;99.90;;;;;;4953540;28;20542;-67
2022/01/13 01:39:43;;;;;;;57.70;22.77;;;5.70;99.90;;;;;;4973149;28;20540;-67
2022/01/13 01:42:13;;;;;;;55.53;20.47;;;5.70;99.90;;;;;;4972365;28;20273;-67
2022/01/13 01:44:44;;;;;;;57.77;22.30;;;5.70;99.90;;;;;;4954599;28;20277;-68
2022/01/13 01:47:15;;;;;;;54.13;21.23;;;5.70;99.90;;;;;;4954237;28;20490;-67
2022/01/13 01:49:46;;;;;;;59.53;21.97;;;5.70;99.90;;;;;;4948001;28;20325;-67
2022/01/13 01:52:17;;;;;;;59.70;21.97;;;5.70;99.90;;;;;;4955331;28;20553;-68
2022/01/13 01:54:46;;;;;;;58.17;21.77;;;5.70;99.90;;;;;;4953112;28;20240;-67
2022/01/13 01:57:16;;;;;;;61.93;22.10;;;5.70;99.90;;;;;;4945784;28;21040;-68
2022/01/13 01:59:45;;;;;;;62.47;22.20;;;5.70;99.90;;;;;;4952731;28;20242;-67
2022/01/13 02:02:15;;;;;;;61.60;21.37;;;5.70;99.90;;;;;;4952877;28;20474;-67
2022/01/13 02:04:44;;;;;;;59.33;21.10;;;5.70;99.90;;;;;;4948730;28;20246;-67
2022/01/13 02:07:14;;;;;;;57.23;21.97;;;5.70;99.90;;;;;;4950944;28;20459;-67
2022/01/13 02:09:48;;;;;;;52.83;19.90;;;5.70;99.90;;;;;;4952937;28;20250;-67
2022/01/13 02:12:30;;;;;;;58.87;22.60;;;5.70;99.90;;;;;;4956789;28;20955;-68
2022/01/13 02:15:16;;;;;;;60.60;21.97;;;5.70;99.90;;;;;;4959113;28;20298;-67
2022/01/13 02:17:44;;;;;;;58.83;21.67;;;5.70;99.90;;;;;;4941509;28;20462;-67
2022/01/13 02:20:18;;;;;;;57.93;22.83;;;5.80;99.90;;;;;;4952884;28;20480;-67
2022/01/13 02:22:47;;;;;;;59.57;21.80;;;5.80;99.90;;;;;;4956768;28;20502;-67
2022/01/13 02:25:16;;;;;;;53.97;20.37;;;5.70;99.90;;;;;;4944672;28;20235;-67
2022/01/13 02:27:45;;;;;;;52.03;20.67;;;5.70;99.90;;;;;;4950717;28;20474;-68
2022/01/13 02:30:14;;;;;;;53.97;22.70;;;5.70;99.90;;;;;;4952487;28;20478;-67
2022/01/13 02:32:44;;;;;;;52.77;21.03;;;5.70;99.90;;;;;;4941560;28;20896;-68
2022/01/13 02:35:12;;;;;;;52.37;20.70;;;5.70;99.90;;;;;;4946334;28;20468;-67
2022/01/13 02:37:42;;;;;;;53.73;20.70;;;5.70;99.90;;;;;;4952179;28;20484;-67
2022/01/13 02:40:11;;;;;;;53.47;20.40;;;5.70;99.90;;;;;;4952776;28;20489;-67
2022/01/13 02:42:39;;;;;;;51.27;19.63;;;5.70;99.90;;;;;;4952297;28;20476;-68
2022/01/13 02:45:16;;;;;;;50.73;20.57;;;5.70;99.90;;;;;;4945417;28;20325;-68
2022/01/13 02:48:13;;;;;;;47.77;19.17;;;5.70;99.90;;;;;;4950158;28;21057;-68
2022/01/13 02:50:41;;;;;;;47.50;20.10;;;5.80;99.90;;;;;;4969370;28;20526;-67
2022/01/13 02:53:11;;;;;;;50.20;18.93;;;5.80;99.90;;;;;;4967481;28;20483;-68
2022/01/13 02:55:39;;;;;;;51.57;19.63;;;5.70;99.90;;;;;;4952502;28;20574;-68
2022/01/13 02:58:07;;;;;;;46.37;20.00;;;5.70;99.90;;;;;;4952142;28;20235;-67
2022/01/13 03:00:35;;;;;;;48.30;20.60;;;5.70;99.90;;;;;;4952067;28;20552;-67
2022/01/13 03:03:04;;;;;;;46.60;19.40;;;5.70;99.90;;;;;;4952064;28;20250;-68
2022/01/13 03:05:37;;;;;;;47.93;18.57;;;5.70;99.90;;;;;;4943156;28;20267;-68
2022/01/13 03:08:06;;;;;;;49.03;19.60;;;5.70;99.90;;;;;;4951911;28;20261;-67
2022/01/13 03:10:35;;;;;;;48.80;18.90;;;5.70;99.90;;;;;;4935207;28;20245;-66
2022/01/13 03:13:05;;;;;;;44.41;16.33;;;5.70;99.90;;;;;;960787;28;10002019;-68
2022/01/13 03:15:33;;;;;;;44.63;18.07;;;5.80;99.90;;;;;;4976496;28;20681;-67
2022/01/13 03:18:01;;;;;;;43.20;18.10;;;5.70;99.90;;;;;;4979466;28;20709;-68
2022/01/13 03:20:30;;;;;;;42.60;19.13;;;5.70;99.90;;;;;;4970869;28;20276;-68
2022/01/13 03:22:58;;;;;;;45.87;19.50;;;5.70;99.90;;;;;;4969443;28;20241;-67
2022/01/13 03:25:26;;;;;;;47.30;18.47;;;5.80;99.90;;;;;;4954771;28;20250;-67
2022/01/13 03:28:03;;;;;;;43.60;17.80;;;5.80;99.90;;;;;;4950492;28;20489;-67
2022/01/13 03:30:32;;;;;;;43.87;18.30;;;5.80;99.90;;;;;;4954128;28;20482;-67
2022/01/13 03:33:00;;;;;;;47.20;19.10;;;5.80;99.90;;;;;;4952096;28;20241;-68
2022/01/13 03:35:29;;;;;;;52.20;18.83;;;5.80;99.90;;;;;;4949671;28;20290;-68
2022/01/13 03:37:58;;;;;;;47.37;19.13;;;5.80;99.90;;;;;;4949976;28;20656;-67
2022/01/13 03:40:27;;;;;;;46.70;19.27;;;5.80;99.90;;;;;;4951956;28;20333;-67
2022/01/13 03:42:57;;;;;;;49.70;19.43;;;5.80;99.90;;;;;;4951845;28;20660;-67
2022/01/13 03:45:25;;;;;;;51.50;20.80;;;5.80;99.90;;;;;;4942400;28;20939;-67
2022/01/13 03:47:54;;;;;;;46.77;20.00;;;5.80;99.90;;;;;;4949272;28;20478;-68
2022/01/13 03:50:22;;;;;;;49.50;18.80;;;5.80;99.90;;;;;;4972475;28;20700;-67
2022/01/13 03:53:27;;;;;;;43.20;19.57;;;5.80;99.90;;;;;;4969843;28;20242;-68
2022/01/13 03:56:45;;;;;;;48.03;18.83;;;5.90;99.90;;;;;;4970957;28;20321;-67
2022/01/13 03:59:52;;;;;;;44.47;18.63;;;5.90;99.90;;;;;;4949205;28;20297;-67
2022/01/13 04:02:21;;;;;;;48.17;18.83;;;5.90;99.90;;;;;;4947842;28;20318;-68
2022/01/13 04:04:50;;;;;;;49.03;19.07;;;5.80;99.90;;;;;;4951667;28;20297;-68
2022/01/13 04:07:20;;;;;;;49.57;20.47;;;5.80;99.90;;;;;;4945626;28;20470;-67
2022/01/13 04:10:28;;;;;;;51.20;19.67;;;5.80;99.90;;;;;;4951325;28;20466;-68
2022/01/13 04:12:57;;;;;;;49.93;19.60;;;5.80;99.90;;;;;;4947407;28;20242;-67
2022/01/13 04:15:29;;;;;;;48.33;19.03;;;5.80;99.90;;;;;;4937890;29;20479;-68
2022/01/13 04:17:58;;;;;;;43.87;17.87;;;5.80;99.90;;;;;;4947876;28;20246;-67
2022/01/13 04:20:26;;;;;;;52.23;20.23;;;5.90;99.90;;;;;;4952804;28;21016;-67
2022/01/13 04:22:54;;;;;;;52.17;19.33;;;5.90;99.90;;;;;;4949442;28;20990;-68
2022/01/13 04:25:23;;;;;;;45.93;19.30;;;5.80;99.90;;;;;;4953846;28;20474;-68
2022/01/13 04:28:01;;;;;;;52.43;20.10;;;5.80;99.90;;;;;;4962242;28;20565;-68
2022/01/13 04:30:45;;;;;;;49.80;21.30;;;5.80;99.90;;;;;;4975981;28;20249;-67
2022/01/13 04:33:14;;;;;;;49.20;20.43;;;5.80;99.90;;;;;;4980596;28;20543;-67
2022/01/13 04:35:43;;;;;;;51.20;19.67;;;5.80;99.90;;;;;;4973881;28;21021;-68
2022/01/13 04:38:11;;;;;;;49.43;19.47;;;5.80;99.90;;;;;;4972628;28;20481;-68
2022/01/13 04:40:44;;;;;;;52.80;20.37;;;5.90;99.90;;;;;;4964211;28;20246;-68
2022/01/13 04:43:13;;;;;;;52.53;20.23;;;5.90;99.90;;;;;;4954317;28;20236;-67
2022/01/13 04:45:43;;;;;;;54.67;19.87;;;5.90;99.90;;;;;;4950530;28;20707;-68
2022/01/13 04:48:11;;;;;;;55.90;20.97;;;5.90;99.90;;;;;;4953755;28;20899;-68
2022/01/13 04:50:40;;;;;;;51.70;20.50;;;5.90;99.90;;;;;;4948264;28;20235;-68
2022/01/13 04:53:08;;;;;;;60.70;22.97;;;5.90;99.90;;;;;;4954435;28;20643;-68
2022/01/13 04:55:37;;;;;;;61.70;22.87;;;5.90;99.90;;;;;;4950971;28;20243;-67
2022/01/13 04:58:07;;;;;;;50.53;21.90;;;5.90;99.90;;;;;;4951493;28;20268;-68
2022/01/13 05:00:35;;;;;;;59.87;22.17;;;6.00;99.90;;;;;;4954143;28;20478;-68
2022/01/13 05:03:04;;;;;;;55.93;22.87;;;6.00;99.90;;;;;;4950344;28;20301;-68
2022/01/13 05:05:32;;;;;;;58.63;22.27;;;6.00;99.90;;;;;;4953726;28;20239;-68
2022/01/13 05:08:01;;;;;;;59.47;22.27;;;6.00;99.90;;;;;;4953711;28;20300;-67
2022/01/13 05:10:29;;;;;;;54.87;22.20;;;6.00;99.90;;;;;;4953763;28;20235;-68
2022/01/13 05:13:10;;;;;;;54.14;18.64;;;6.00;99.90;;;;;;3041209;28;10002050;-68
2022/01/13 05:15:41;;;;;;;53.93;21.00;;;6.00;99.90;;;;;;3256577;28;10001990;-67
2022/01/13 05:18:21;;;;;;;59.43;21.80;;;6.00;99.90;;;;;;4973518;28;20899;-68
2022/01/13 05:20:56;;;;;;;55.33;21.60;;;6.00;99.90;;;;;;4966701;28;20265;-68
2022/01/13 05:23:25;;;;;;;54.03;21.13;;;6.00;99.90;;;;;;4965210;28;20253;-67
2022/01/13 05:25:53;;;;;;;52.07;21.23;;;6.00;99.90;;;;;;4967132;28;20245;-68
2022/01/13 05:28:22;;;;;;;54.77;22.03;;;6.00;99.90;;;;;;4978818;28;20242;-68
2022/01/13 05:30:50;;;;;;;52.43;21.60;;;6.00;99.90;;;;;;4980895;28;20236;-68
2022/01/13 05:33:20;;;;;;;61.13;23.37;;;6.10;99.90;;;;;;4979193;28;20482;-68
2022/01/13 05:35:48;;;;;;;59.27;21.73;;;6.10;99.90;;;;;;4974132;28;20233;-68
2022/01/13 05:38:16;;;;;;;58.47;21.97;;;6.10;99.90;;;;;;4973412;28;20886;-67
2022/01/13 05:40:44;;;;;;;63.47;24.00;;;6.10;99.90;;;;;;4972537;28;20478;-67
2022/01/13 05:43:12;;;;;;;66.20;22.37;;;6.10;99.90;;;;;;4968731;28;21061;-68
2022/01/13 05:45:40;;;;;;;64.80;22.47;;;6.00;99.90;;;;;;4954703;28;20246;-68
2022/01/13 05:48:09;;;;;;;59.67;23.53;;;6.10;99.90;;;;;;4952991;28;21021;-67
2022/01/13 05:50:38;;;;;;;63.53;22.47;;;6.10;99.90;;;;;;4953123;28;20585;-67
2022/01/13 05:53:07;;;;;;;58.10;22.47;;;6.20;99.90;;;;;;4953435;28;20290;-68
2022/01/13 05:55:35;;;;;;;59.20;21.60;;;6.10;99.90;;;;;;4953265;28;20247;-68
2022/01/13 05:58:04;;;;;;;56.00;21.20;;;6.20;99.90;;;;;;4953574;28;20676;-67
2022/01/13 06:00:32;;;;;;;61.23;22.63;;;6.10;99.90;;;;;;4957896;28;20239;-68
2022/01/13 06:03:01;;;;;;;63.17;22.67;;;6.10;99.90;;;;;;4972544;28;20251;-67
2022/01/13 06:05:30;;;;;;;54.80;21.13;;;6.10;99.90;;;;;;4972504;28;20246;-68
2022/01/13 06:07:59;;;;;;;54.77;21.90;;;6.10;99.90;;;;;;4972393;28;20276;-68
2022/01/13 06:10:28;;;;;;;58.43;19.73;;;6.10;99.90;;;;;;4972356;28;20266;-67
2022/01/13 06:12:56;;;;;;;52.50;20.37;;;6.20;99.90;;;;;;4971961;28;20833;-67
2022/01/13 06:15:25;;;;;;;57.33;21.53;;;6.10;99.90;;;;;;4972570;28;20501;-67
2022/01/13 06:17:56;;;;;;;54.97;20.30;;;6.10;99.90;;;;;;4972408;28;20249;-68
2022/01/13 06:20:25;;;;;;;59.00;20.70;;;6.00;99.90;;;;;;4972386;28;20243;-68
2022/01/13 06:22:54;;;;;;;59.23;20.67;;;6.00;99.90;;;;;;4972241;28;21010;-68
2022/01/13 06:25:23;;;;;;;59.10;20.60;;;6.00;99.90;;;;;;4972092;28;20293;-68
2022/01/13 06:27:51;;;;;;;56.57;20.07;;;6.10;99.90;;;;;;4969812;28;20478;-68
2022/01/13 06:30:40;;;;;;;55.43;20.33;;;6.10;99.90;;;;;;4969492;28;20537;-67
2022/01/13 06:33:08;;;;;;;49.70;20.47;;;6.00;99.90;;;;;;4951891;28;20241;-68
2022/01/13 06:35:37;;;;;;;56.77;20.97;;;6.10;99.90;;;;;;4960160;28;20332;-68
2022/01/13 06:38:05;;;;;;;55.10;20.93;;;6.10;99.90;;;;;;4968831;28;20392;-68
2022/01/13 06:40:35;;;;;;;66.83;21.93;;;6.10;99.90;;;;;;4971485;28;20242;-68
2022/01/13 06:43:03;;;;;;;63.03;21.43;;;6.10;99.90;;;;;;4969374;28;20238;-68
2022/01/13 06:45:31;;;;;;;53.17;20.40;;;6.10;99.90;;;;;;4973955;28;20284;-68
2022/01/13 06:47:59;;;;;;;51.63;19.07;;;6.00;99.90;;;;;;4976771;28;20642;-67
2022/01/13 06:50:28;;;;;;;58.37;21.57;;;6.00;99.90;;;;;;4979814;28;20238;-68
2022/01/13 06:52:56;;;;;;;62.60;21.87;;;6.10;99.90;;;;;;4966084;28;20699;-67
2022/01/13 06:55:25;;;;;;;56.87;21.80;;;6.00;99.90;;;;;;4971577;28;21095;-68
2022/01/13 06:57:54;;;;;;;52.13;20.23;;;6.00;99.90;;;;;;4959903;28;21082;-67
2022/01/13 07:00:24;;;;;;;58.63;21.10;;;6.00;99.90;;;;;;4976690;28;20573;-68
2022/01/13 07:02:55;;;;;;;56.13;21.03;;;6.00;99.90;;;;;;4971820;28;20557;-68
2022/01/13 07:05:23;;;;;;;51.67;20.00;;;6.00;99.90;;;;;;4955498;28;20486;-68
2022/01/13 07:07:51;;;;;;;53.77;18.83;;;6.00;99.90;;;;;;4946484;28;20231;-68
2022/01/13 07:10:20;;;;;;;56.83;21.60;;;6.00;99.90;;;;;;4946874;28;20329;-68
2022/01/13 07:13:01;;;;;;;60.00;20.63;;;6.00;99.90;;;;;;1677551;28;10022762;-66
2022/01/13 07:15:31;;;;;;;53.57;20.23;;;6.10;99.90;;;;;;4625382;28;10001802;-65
2022/01/13 07:17:59;;;;;;;56.93;21.63;;;6.20;99.90;;;;;;4969320;28;20243;-64
2022/01/13 07:20:28;;;;;;;56.50;22.20;;;6.20;99.90;;;;;;4969332;28;20837;-64
2022/01/13 07:22:57;;;;;;;55.43;21.43;;;6.10;99.90;;;;;;4969617;28;20242;-64
2022/01/13 07:25:26;;;;;;;59.03;21.70;;;6.10;99.90;;;;;;4971457;28;20683;-64
2022/01/13 07:27:55;;;;;;;52.30;21.83;;;6.00;99.90;;;;;;4971722;28;20249;-64
2022/01/13 07:30:24;;;;;;;50.97;20.23;;;6.10;99.90;;;;;;4969137;28;20261;-64
2022/01/13 07:32:52;;;;;;;50.17;20.03;;;6.10;99.90;;;;;;4964554;28;20699;-64
2022/01/13 07:35:22;;;;;;;54.63;21.20;;;6.00;99.90;;;;;;4951730;28;20290;-64
2022/01/13 07:37:50;;;;;;;67.47;29.67;;;6.10;99.90;;;;;;4950293;28;20776;-64
2022/01/13 07:40:18;;;;;;;56.97;23.67;;;6.10;99.90;;;;;;4951704;28;20350;-70
2022/01/13 07:42:47;;;;;;;64.23;23.73;;;6.10;99.90;;;;;;4951812;28;20266;-71
2022/01/13 07:45:18;;;;;;;53.70;22.77;;;6.10;99.90;;;;;;4952613;28;20779;-71
2022/01/13 07:47:47;;;;;;;52.67;21.83;;;6.10;99.90;;;;;;4970758;28;20289;-71
2022/01/13 07:50:16;;;;;;;53.27;21.57;;;6.00;99.90;;;;;;4980876;28;20732;-71
2022/01/13 07:52:45;;;;;;;55.40;22.00;;;6.00;99.90;;;;;;4977002;28;20498;-71
2022/01/13 07:55:13;;;;;;;49.10;21.73;;;5.90;99.90;;;;;;4975195;28;20470;-71
2022/01/13 07:57:41;;;;;;;51.47;21.37;;;5.90;99.90;;;;;;4974810;28;20238;-71
2022/01/13 08:00:12;;;;;;;47.57;21.27;;;5.90;99.90;;;;;;4961181;28;20235;-71
2022/01/13 08:02:40;;;;;;;56.90;21.77;;;5.90;99.90;;;;;;4955475;28;20294;-71
2022/01/13 08:05:10;;;;;;;57.67;23.63;;;5.90;99.90;;;;;;4955605;28;20482;-71
2022/01/13 08:07:39;;;;;;;59.23;24.10;;;5.90;99.90;;;;;;4955261;28;20269;-71
2022/01/13 08:10:07;;;;;;;50.10;22.40;;;5.90;99.90;;;;;;4955358;28;20250;-71
2022/01/13 08:12:35;;;;;;;59.40;23.47;;;5.90;99.90;;;;;;4955271;28;20673;-71
2022/01/13 08:15:04;;;;;;;55.33;22.60;;;5.90;99.90;;;;;;4955441;28;20979;-70
2022/01/13 08:20:19;;;;;;;56.17;23.63;;;5.90;99.90;;;;;;4955222;28;20857;-72
2022/01/13 08:22:47;;;;;;;59.20;24.10;;;5.90;99.90;;;;;;4954961;28;20250;-70
2022/01/13 08:25:17;;;;;;;56.13;23.67;;;5.90;99.90;;;;;;4955479;28;20516;-71
2022/01/13 08:27:45;;;;;;;51.93;22.87;;;5.90;99.90;;;;;;4955031;28;20677;-71
2022/01/13 08:30:14;;;;;;;54.23;23.17;;;5.90;99.90;;;;;;4954958;28;20486;-71
2022/01/13 08:32:42;;;;;;;54.53;23.57;;;5.90;99.90;;;;;;4954882;28;20896;-70
2022/01/13 08:35:11;;;;;;;47.70;21.90;;;5.90;99.90;;;;;;4955197;28;20491;-71
2022/01/13 08:37:41;;;;;;;52.03;22.57;;;5.90;99.90;;;;;;4954658;28;20999;-70
2022/01/13 08:40:13;;;;;;;51.93;23.97;;;5.90;99.90;;;;;;4954992;28;20668;-71
2022/01/13 08:42:42;;;;;;;44.13;18.83;;;5.90;99.90;;;;;;4954631;28;20245;-71
2022/01/13 08:45:12;;;;;;;50.50;23.40;;;5.90;99.90;;;;;;4954667;28;20262;-71
2022/01/13 08:47:41;;;;;;;47.20;21.00;;;5.90;99.90;;;;;;4954497;28;20247;-70
2022/01/13 08:50:10;;;;;;;51.63;22.37;;;5.90;99.90;;;;;;4953943;28;20270;-70
2022/01/13 08:52:41;;;;;;;50.73;22.93;;;5.90;99.90;;;;;;4954464;28;20825;-70
2022/01/13 08:55:10;;;;;;;52.77;21.90;;;5.90;99.90;;;;;;4954675;28;20620;-70
2022/01/13 08:57:38;;;;;;;46.07;21.83;;;5.90;99.90;;;;;;4954873;28;20259;-71
2022/01/13 09:00:08;;;;;;;49.40;21.27;;;5.90;99.90;;;;;;4965323;28;20239;-70
2022/01/13 09:02:41;;;;;;;51.33;22.03;;;5.90;99.90;;;;;;4954367;28;20262;-71
2022/01/13 09:05:12;;;;;;;46.80;20.63;;;5.90;99.90;;;;;;4954341;28;20242;-70
2022/01/13 09:07:42;;;;;;;50.10;21.90;;;6.00;99.90;;;;;;4954073;28;20245;-71
2022/01/13 09:10:12;;;;;;;50.07;21.83;;;5.90;99.90;;;;;;4925524;28;27287;-66
2022/01/13 09:12:40;;;;;;;40.73;19.40;;;6.00;99.90;;;;;;971179;28;10002319;-70
2022/01/13 09:15:29;;;;;;;47.00;21.50;;;6.00;99.90;;;;;;4973658;28;20238;-70
2022/01/13 09:18:00;;;;;;;45.27;20.30;;;6.00;99.90;;;;;;4973841;28;20652;-70
2022/01/13 09:20:28;;;;;;;44.87;20.10;;;6.00;99.90;;;;;;4973439;28;20722;-70
2022/01/13 09:22:57;;;;;;;45.17;21.00;;;6.00;99.90;;;;;;4973224;28;20242;-70
2022/01/13 09:25:27;;;;;;;43.67;20.87;;;6.10;99.90;;;;;;4973392;28;20482;-69
2022/01/13 09:27:55;;;;;;;42.20;20.53;;;6.10;99.90;;;;;;4973335;28;20466;-70
2022/01/13 09:30:23;;;;;;;43.60;19.33;;;6.10;99.90;;;;;;4973459;28;20478;-70
2022/01/13 09:32:52;;;;;;;44.10;20.07;;;6.10;99.90;;;;;;4972940;28;20245;-70
2022/01/13 09:35:20;;;;;;;46.57;20.83;;;6.10;99.90;;;;;;4970626;28;20237;-70
2022/01/13 09:37:48;;;;;;;47.07;21.50;;;6.10;99.90;;;;;;4973100;28;20248;-70
2022/01/13 09:40:18;;;;;;;48.63;21.97;;;6.10;99.90;;;;;;4973305;28;20273;-70
2022/01/13 09:42:47;;;;;;;48.43;21.33;;;6.10;99.90;;;;;;4972857;28;20252;-70
2022/01/13 09:45:16;;;;;;;44.17;20.13;;;6.10;99.90;;;;;;4972113;28;20656;-70
2022/01/13 09:47:46;;;;;;;43.73;19.63;;;6.10;99.90;;;;;;4972364;28;20478;-69
2022/01/13 09:50:18;;;;;;;45.73;19.63;;;6.10;99.90;;;;;;4972356;28;20509;-70
2022/01/13 09:52:47;;;;;;;45.63;20.80;;;6.10;99.90;;;;;;4967866;28;20388;-70
2022/01/13 09:55:17;;;;;;;40.43;19.60;;;6.10;99.90;;;;;;4952491;28;20238;-69
2022/01/13 09:57:48;;;;;;;41.43;19.03;;;6.10;99.90;;;;;;4952544;28;21044;-69
2022/01/13 10:00:19;;;;;;;46.27;19.67;;;6.10;99.90;;;;;;4946585;28;20250;-70
2022/01/13 10:02:47;;;;;;;39.63;18.33;;;6.00;99.90;;;;;;4948372;28;21015;-70
2022/01/13 10:05:17;;;;;;;41.83;19.43;;;6.10;99.90;;;;;;4948306;28;20491;-69
2022/01/13 10:07:48;;;;;;;38.03;17.90;;;6.10;99.90;;;;;;4947329;28;20329;-70
2022/01/13 10:10:27;;;;;;;40.40;18.67;;;6.00;99.90;;;;;;4948264;28;20648;-70
2022/01/13 10:13:07;;;;;;;44.40;18.67;;;6.00;99.90;;;;;;4947902;28;20298;-70
2022/01/13 10:18:38;;;;;;;41.13;18.90;;;6.00;99.90;;;;;;4966662;28;20489;-69
2022/01/13 10:21:07;;;;;;;39.73;18.17;;;6.00;99.90;;;;;;4967034;28;20241;-70
2022/01/13 10:23:35;;;;;;;41.50;19.77;;;6.00;99.90;;;;;;4966752;28;20257;-70
2022/01/13 10:26:14;;;;;;;44.50;19.57;;;6.00;99.90;;;;;;4965989;28;20485;-69
2022/01/13 10:28:51;;;;;;;42.53;18.53;;;6.00;99.90;;;;;;4966936;28;20329;-68
2022/01/13 10:31:20;;;;;;;40.57;17.90;;;6.00;99.90;;;;;;4966714;28;20476;-70
2022/01/13 10:33:48;;;;;;;41.57;19.60;;;6.00;99.90;;;;;;4966677;28;20466;-70
2022/01/13 10:36:16;;;;;;;39.77;18.50;;;6.00;99.90;;;;;;4965619;28;20533;-68
2022/01/13 10:38:52;;;;;;;47.17;19.93;;;6.10;99.90;;;;;;4966932;28;20489;-69
2022/01/13 10:41:31;;;;;;;40.00;17.80;;;6.10;99.90;;;;;;4967155;28;20481;-69
2022/01/13 10:44:15;;;;;;;39.10;17.93;;;6.10;99.90;;;;;;4966969;28;20244;-69
2022/01/13 10:47:04;;;;;;;37.03;18.40;;;6.10;99.90;;;;;;4965280;28;21033;-70
2022/01/13 10:49:34;;;;;;;37.73;16.80;;;6.10;99.90;;;;;;4966483;28;20269;-70
2022/01/13 10:52:23;;;;;;;39.03;18.73;;;6.10;99.90;;;;;;4966910;28;20385;-69
2022/01/13 10:54:54;;;;;;;36.10;17.20;;;6.10;99.90;;;;;;4966611;28;20480;-69
2022/01/13 10:57:25;;;;;;;39.23;18.00;;;6.10;99.90;;;;;;4964834;28;20325;-70
2022/01/13 10:59:53;;;;;;;43.50;17.40;;;6.20;99.90;;;;;;4947587;28;20479;-69
2022/01/13 11:02:23;;;;;;;33.80;16.23;;;6.20;99.90;;;;;;4947260;28;20846;-69
2022/01/13 11:04:52;;;;;;;37.03;16.43;;;6.10;99.90;;;;;;4947217;28;20266;-69
2022/01/13 11:07:23;;;;;;;38.33;17.70;;;6.20;99.90;;;;;;4945876;28;20227;-71
2022/01/13 11:09:56;;;;;;;36.30;17.10;;;6.20;99.90;;;;;;4947405;28;20281;-69
2022/01/13 11:12:35;;;;;;;39.10;17.07;;;6.20;99.90;;;;;;4966934;28;20238;-70
2022/01/13 11:15:13;;;;;;;35.53;16.42;;;6.30;99.90;;;;;;1420864;28;10022582;-69
2022/01/13 11:17:44;;;;;;;39.87;17.83;;;6.30;99.90;;;;;;4622593;28;10001311;-69
2022/01/13 11:20:14;;;;;;;38.40;17.90;;;6.30;99.90;;;;;;4966717;28;21514;-68
2022/01/13 11:22:44;;;;;;;34.50;16.33;;;6.30;99.90;;;;;;4967209;28;20253;-68
2022/01/13 11:25:15;;;;;;;41.63;17.77;;;6.30;99.90;;;;;;4970305;28;20254;-66
2022/01/13 11:27:45;;;;;;;38.90;16.87;;;6.30;99.90;;;;;;4969722;28;21065;-70
2022/01/13 11:30:16;;;;;;;41.13;18.53;;;6.40;99.90;;;;;;4970467;28;20242;-71
2022/01/13 11:32:45;;;;;;;41.93;18.13;;;6.40;99.90;;;;;;4970113;28;20285;-69
2022/01/13 11:35:19;;;;;;;42.27;18.77;;;6.40;99.90;;;;;;4969126;28;20505;-70
2022/01/13 11:37:47;;;;;;;38.23;18.43;;;6.40;99.90;;;;;;4969826;28;20273;-71
2022/01/13 11:40:43;;;;;;;37.20;18.10;;;6.40;99.90;;;;;;4969618;28;20237;-70
2022/01/13 11:43:34;;;;;;;39.10;18.20;;;6.40;99.90;;;;;;4970060;28;20242;-71
2022/01/13 11:46:14;;;;;;;40.70;18.23;;;6.40;99.90;;;;;;4968143;28;20245;-69
2022/01/13 11:48:57;;;;;;;38.07;18.47;;;6.40;99.90;;;;;;4969942;28;20630;-70
2022/01/13 11:51:28;;;;;;;41.27;18.03;;;6.40;99.90;;;;;;4970143;28;20284;-70
2022/01/13 11:54:02;;;;;;;39.13;18.87;;;6.40;99.90;;;;;;4957679;28;20549;-70
2022/01/13 11:56:31;;;;;;;38.63;17.93;;;6.40;99.90;;;;;;4962339;28;20481;-70
2022/01/13 11:59:00;;;;;;;41.80;18.70;;;6.40;99.90;;;;;;4970032;28;20242;-70
2022/01/13 12:01:30;;;;;;;46.03;17.63;;;6.40;99.90;;;;;;4969803;28;20278;-68
2022/01/13 12:04:01;;;;;;;38.87;18.63;;;6.40;99.90;;;;;;4969644;28;20246;-67
2022/01/13 12:06:41;;;;;;;38.87;17.53;;;6.50;99.90;;;;;;4967894;28;20317;-69
2022/01/13 12:09:10;;;;;;;39.23;18.10;;;6.40;99.90;;;;;;4969674;28;20252;-71
2022/01/13 12:11:42;;;;;;;45.70;18.97;;;6.40;99.90;;;;;;4968954;28;20250;-70
2022/01/13 12:14:41;;;;;;;43.57;19.40;;;6.40;99.90;;;;;;4969376;28;20738;-71
2022/01/13 12:17:19;;;;;;;43.57;19.47;;;6.50;99.90;;;;;;4924653;28;20258;-69
2022/01/13 12:19:50;;;;;;;43.73;18.90;;;6.50;99.90;;;;;;4969138;28;20643;-71
2022/01/13 12:22:39;;;;;;;42.50;20.07;;;6.50;99.90;;;;;;4969169;28;20269;-71
2022/01/13 12:25:09;;;;;;;44.17;19.17;;;6.50;99.90;;;;;;4969290;28;20321;-70
2022/01/13 12:27:49;;;;;;;47.37;20.87;;;6.50;99.90;;;;;;4968208;28;21137;-71
2022/01/13 12:30:25;;;;;;;45.43;20.20;;;6.50;99.90;;;;;;4968410;28;20246;-71
2022/01/13 12:32:55;;;;;;;46.83;20.87;;;6.50;99.90;;;;;;4969155;28;20270;-70
2022/01/13 12:35:41;;;;;;;48.30;20.57;;;6.50;99.90;;;;;;4967531;28;20241;-70
2022/01/13 12:38:10;;;;;;;46.63;19.93;;;6.50;99.90;;;;;;4968503;28;20298;-71
2022/01/13 12:40:43;;;;;;;46.13;20.40;;;6.60;99.90;;;;;;4969087;28;20278;-70
2022/01/13 12:43:36;;;;;;;49.43;22.60;;;6.60;99.90;;;;;;4969077;28;20246;-68
2022/01/13 12:46:08;;;;;;;48.43;21.00;;;6.60;99.90;;;;;;4967485;28;20569;-71
2022/01/13 12:48:38;;;;;;;45.83;21.27;;;6.60;99.90;;;;;;4968514;28;20253;-69
2022/01/13 12:51:07;;;;;;;48.57;21.53;;;6.70;99.90;;;;;;4968962;28;20372;-71
2022/01/13 12:53:37;;;;;;;46.77;21.80;;;6.60;99.90;;;;;;4968556;28;20274;-71
2022/01/13 12:56:09;;;;;;;50.70;22.70;;;6.70;99.90;;;;;;4967580;28;20246;-71
2022/01/13 12:58:41;;;;;;;48.63;21.87;;;6.70;99.90;;;;;;4968041;28;20250;-69
2022/01/13 13:01:12;;;;;;;45.77;21.70;;;6.70;99.90;;;;;;4968694;28;20260;-70
2022/01/13 13:03:41;;;;;;;50.03;23.10;;;6.70;99.90;;;;;;4968613;28;20282;-70
2022/01/13 13:06:11;;;;;;;46.47;22.50;;;6.70;99.90;;;;;;4966742;28;20278;-70
2022/01/13 13:08:43;;;;;;;49.23;22.60;;;6.70;99.90;;;;;;4967190;28;20251;-70
2022/01/13 13:11:11;;;;;;;43.03;21.13;;;6.70;99.90;;;;;;4968681;28;20235;-71